sensor_id;sensor_type;location;lat;lon;timestamp;temperature;humidity
34145;HTU21D;69555;53.014;8.886;2023-08-21T00:01:01;19.47;80.62
34145;HTU21D;69555;53.014;8.886;2023-08-21T00:03:26;19.40;80.68
34145;HTU21D;69555;53.014;8.886;2023-08-21T00:05:52;19.32;81.03
34145;HTU21D;69555;53.014;8.886;2023-08-21T00:08:17;19.44;80.98
34145;HTU21D;69555;53.014;8.886;2023-08-21T00:10:43;19.23;81.97
34145;HTU21D;69555;53.014;8.886;2023-08-21T00:13:08;19.30;81.54
34145;HTU21D;69555;53.014;8.886;2023-08-21T00:15:34;19.15;81.87
34145;HTU21D;69555;53.014;8.886;2023-08-21T00:17:59;18.70;83.57
34145;HTU21D;69555;53.014;8.886;2023-08-21T00:20:26;18.50;83.73
34145;HTU21D;69555;53.014;8.886;2023-08-21T00:22:51;18.67;82.34
34145;HTU21D;69555;53.014;8.886;2023-08-21T00:25:17;18.81;81.43
34145;HTU21D;69555;53.014;8.886;2023-08-21T00:27:42;18.84;80.98
34145;HTU21D;69555;53.014;8.886;2023-08-21T00:30:08;18.69;81.80
34145;HTU21D;69555;53.014;8.886;2023-08-21T00:32:35;18.66;81.83
34145;HTU21D;69555;53.014;8.886;2023-08-21T00:35:00;18.50;82.36
34145;HTU21D;69555;53.014;8.886;2023-08-21T00:37:25;18.73;81.62
34145;HTU21D;69555;53.014;8.886;2023-08-21T00:39:51;18.71;81.69
34145;HTU21D;69555;53.014;8.886;2023-08-21T00:42:16;18.70;82.34
34145;HTU21D;69555;53.014;8.886;2023-08-21T00:44:42;18.58;83.04
34145;HTU21D;69555;53.014;8.886;2023-08-21T00:47:07;18.72;82.46
34145;HTU21D;69555;53.014;8.886;2023-08-21T00:49:33;18.74;82.14
34145;HTU21D;69555;53.014;8.886;2023-08-21T00:51:59;18.67;82.33
34145;HTU21D;69555;53.014;8.886;2023-08-21T00:54:25;18.61;82.94
34145;HTU21D;69555;53.014;8.886;2023-08-21T00:56:51;18.54;82.87
34145;HTU21D;69555;53.014;8.886;2023-08-21T00:59:18;18.36;83.37
34145;HTU21D;69555;53.014;8.886;2023-08-21T01:01:44;18.06;85.03
34145;HTU21D;69555;53.014;8.886;2023-08-21T01:04:10;18.15;84.00
34145;HTU21D;69555;53.014;8.886;2023-08-21T01:06:35;18.33;83.42
34145;HTU21D;69555;53.014;8.886;2023-08-21T01:09:41;18.02;84.26
34145;HTU21D;69555;53.014;8.886;2023-08-21T01:12:12;17.79;85.23
34145;HTU21D;69555;53.014;8.886;2023-08-21T01:15:00;17.89;84.41
34145;HTU21D;69555;53.014;8.886;2023-08-21T01:17:29;17.97;83.56
34145;HTU21D;69555;53.014;8.886;2023-08-21T01:19:55;17.76;84.73
34145;HTU21D;69555;53.014;8.886;2023-08-21T01:22:25;17.78;84.70
34145;HTU21D;69555;53.014;8.886;2023-08-21T01:24:51;17.63;85.10
34145;HTU21D;69555;53.014;8.886;2023-08-21T01:27:16;17.63;85.06
34145;HTU21D;69555;53.014;8.886;2023-08-21T01:29:42;17.34;86.57
34145;HTU21D;69555;53.014;8.886;2023-08-21T01:32:27;17.04;89.02
34145;HTU21D;69555;53.014;8.886;2023-08-21T01:34:55;17.02;88.55
34145;HTU21D;69555;53.014;8.886;2023-08-21T01:37:21;17.26;86.77
34145;HTU21D;69555;53.014;8.886;2023-08-21T01:39:47;17.35;86.53
34145;HTU21D;69555;53.014;8.886;2023-08-21T01:42:12;17.35;86.26
34145;HTU21D;69555;53.014;8.886;2023-08-21T01:44:38;17.36;86.13
34145;HTU21D;69555;53.014;8.886;2023-08-21T01:47:03;17.17;87.60
34145;HTU21D;69555;53.014;8.886;2023-08-21T01:49:29;17.26;87.04
34145;HTU21D;69555;53.014;8.886;2023-08-21T01:51:54;17.25;87.11
34145;HTU21D;69555;53.014;8.886;2023-08-21T01:54:20;17.13;88.86
34145;HTU21D;69555;53.014;8.886;2023-08-21T01:56:45;17.14;87.78
34145;HTU21D;69555;53.014;8.886;2023-08-21T01:59:10;17.21;87.77
34145;HTU21D;69555;53.014;8.886;2023-08-21T02:01:36;17.25;87.41
34145;HTU21D;69555;53.014;8.886;2023-08-21T02:04:01;17.28;87.20
34145;HTU21D;69555;53.014;8.886;2023-08-21T02:06:27;17.43;86.66
34145;HTU21D;69555;53.014;8.886;2023-08-21T02:08:52;17.52;86.99
34145;HTU21D;69555;53.014;8.886;2023-08-21T02:11:17;17.56;86.29
34145;HTU21D;69555;53.014;8.886;2023-08-21T02:13:43;17.60;86.00
34145;HTU21D;69555;53.014;8.886;2023-08-21T02:16:08;17.63;85.32
34145;HTU21D;69555;53.014;8.886;2023-08-21T02:18:34;17.54;86.30
34145;HTU21D;69555;53.014;8.886;2023-08-21T02:21:02;17.46;87.55
34145;HTU21D;69555;53.014;8.886;2023-08-21T02:23:28;17.63;85.71
34145;HTU21D;69555;53.014;8.886;2023-08-21T02:25:54;17.59;85.64
34145;HTU21D;69555;53.014;8.886;2023-08-21T02:28:20;17.52;85.67
34145;HTU21D;69555;53.014;8.886;2023-08-21T02:30:45;17.68;84.58
34145;HTU21D;69555;53.014;8.886;2023-08-21T02:33:11;17.72;84.35
34145;HTU21D;69555;53.014;8.886;2023-08-21T02:35:36;17.75;84.07
34145;HTU21D;69555;53.014;8.886;2023-08-21T02:38:02;17.68;84.49
34145;HTU21D;69555;53.014;8.886;2023-08-21T02:40:27;17.67;84.36
34145;HTU21D;69555;53.014;8.886;2023-08-21T02:42:52;17.64;84.45
34145;HTU21D;69555;53.014;8.886;2023-08-21T02:45:18;17.65;84.81
34145;HTU21D;69555;53.014;8.886;2023-08-21T02:47:44;17.74;84.21
34145;HTU21D;69555;53.014;8.886;2023-08-21T02:50:10;17.83;83.58
34145;HTU21D;69555;53.014;8.886;2023-08-21T02:52:35;17.75;84.31
34145;HTU21D;69555;53.014;8.886;2023-08-21T02:55:02;17.54;85.40
34145;HTU21D;69555;53.014;8.886;2023-08-21T02:57:28;17.48;85.89
34145;HTU21D;69555;53.014;8.886;2023-08-21T02:59:54;17.44;85.91
34145;HTU21D;69555;53.014;8.886;2023-08-21T03:02:20;17.44;85.54
34145;HTU21D;69555;53.014;8.886;2023-08-21T03:04:46;17.49;85.24
34145;HTU21D;69555;53.014;8.886;2023-08-21T03:07:11;17.56;84.58
34145;HTU21D;69555;53.014;8.886;2023-08-21T03:09:38;17.61;84.21
34145;HTU21D;69555;53.014;8.886;2023-08-21T03:12:04;17.60;84.58
34145;HTU21D;69555;53.014;8.886;2023-08-21T03:14:31;17.59;84.41
34145;HTU21D;69555;53.014;8.886;2023-08-21T03:16:58;17.54;84.20
34145;HTU21D;69555;53.014;8.886;2023-08-21T03:19:24;17.56;84.34
34145;HTU21D;69555;53.014;8.886;2023-08-21T03:21:50;17.60;83.99
34145;HTU21D;69555;53.014;8.886;2023-08-21T03:24:15;17.66;83.82
34145;HTU21D;69555;53.014;8.886;2023-08-21T03:26:40;17.63;83.93
34145;HTU21D;69555;53.014;8.886;2023-08-21T03:29:06;17.69;83.62
34145;HTU21D;69555;53.014;8.886;2023-08-21T03:31:32;17.54;84.48
34145;HTU21D;69555;53.014;8.886;2023-08-21T03:33:57;17.14;87.65
34145;HTU21D;69555;53.014;8.886;2023-08-21T03:36:23;17.04;88.73
34145;HTU21D;69555;53.014;8.886;2023-08-21T03:38:59;17.01;88.79
34145;HTU21D;69555;53.014;8.886;2023-08-21T03:41:24;17.21;87.46
34145;HTU21D;69555;53.014;8.886;2023-08-21T03:43:49;17.20;88.24
34145;HTU21D;69555;53.014;8.886;2023-08-21T03:46:15;17.22;88.22
34145;HTU21D;69555;53.014;8.886;2023-08-21T03:48:40;17.31;87.96
34145;HTU21D;69555;53.014;8.886;2023-08-21T03:51:06;17.36;88.31
34145;HTU21D;69555;53.014;8.886;2023-08-21T03:53:31;17.01;90.63
34145;HTU21D;69555;53.014;8.886;2023-08-21T03:55:56;17.29;88.92
34145;HTU21D;69555;53.014;8.886;2023-08-21T03:58:22;17.54;87.91
34145;HTU21D;69555;53.014;8.886;2023-08-21T04:00:47;17.49;88.00
34145;HTU21D;69555;53.014;8.886;2023-08-21T04:03:13;17.58;87.08
34145;HTU21D;69555;53.014;8.886;2023-08-21T04:05:38;17.53;86.44
34145;HTU21D;69555;53.014;8.886;2023-08-21T04:08:04;17.54;85.61
34145;HTU21D;69555;53.014;8.886;2023-08-21T04:10:29;17.38;85.42
34145;HTU21D;69555;53.014;8.886;2023-08-21T04:12:54;17.35;84.68
34145;HTU21D;69555;53.014;8.886;2023-08-21T04:15:20;16.80;86.00
34145;HTU21D;69555;53.014;8.886;2023-08-21T04:17:45;16.84;85.97
34145;HTU21D;69555;53.014;8.886;2023-08-21T04:20:11;16.43;86.94
34145;HTU21D;69555;53.014;8.886;2023-08-21T04:22:36;16.29;87.68
34145;HTU21D;69555;53.014;8.886;2023-08-21T04:25:02;15.75;89.62
34145;HTU21D;69555;53.014;8.886;2023-08-21T04:27:27;15.85;89.04
34145;HTU21D;69555;53.014;8.886;2023-08-21T04:29:53;15.97;88.19
34145;HTU21D;69555;53.014;8.886;2023-08-21T04:32:18;15.67;89.80
34145;HTU21D;69555;53.014;8.886;2023-08-21T04:34:44;15.81;89.50
34145;HTU21D;69555;53.014;8.886;2023-08-21T04:37:09;16.10;88.14
34145;HTU21D;69555;53.014;8.886;2023-08-21T04:39:34;16.35;87.41
34145;HTU21D;69555;53.014;8.886;2023-08-21T04:42:01;16.62;85.80
34145;HTU21D;69555;53.014;8.886;2023-08-21T04:44:27;16.65;85.31
34145;HTU21D;69555;53.014;8.886;2023-08-21T04:46:52;16.58;86.46
34145;HTU21D;69555;53.014;8.886;2023-08-21T04:49:18;17.31;83.74
34145;HTU21D;69555;53.014;8.886;2023-08-21T04:51:43;18.07;81.14
34145;HTU21D;69555;53.014;8.886;2023-08-21T04:54:08;18.34;79.30
34145;HTU21D;69555;53.014;8.886;2023-08-21T04:56:34;18.84;77.92
34145;HTU21D;69555;53.014;8.886;2023-08-21T04:58:59;19.69;75.33
34145;HTU21D;69555;53.014;8.886;2023-08-21T05:01:25;20.99;70.45
34145;HTU21D;69555;53.014;8.886;2023-08-21T05:03:51;22.08;66.53
34145;HTU21D;69555;53.014;8.886;2023-08-21T05:06:16;23.29;62.67
34145;HTU21D;69555;53.014;8.886;2023-08-21T05:08:42;24.39;59.16
34145;HTU21D;69555;53.014;8.886;2023-08-21T05:11:07;25.29;56.58
34145;HTU21D;69555;53.014;8.886;2023-08-21T05:13:33;25.57;55.26
34145;HTU21D;69555;53.014;8.886;2023-08-21T05:15:58;24.73;57.76
34145;HTU21D;69555;53.014;8.886;2023-08-21T05:18:24;26.23;54.26
34145;HTU21D;69555;53.014;8.886;2023-08-21T05:20:50;27.79;49.63
34145;HTU21D;69555;53.014;8.886;2023-08-21T05:23:16;28.85;47.23
34145;HTU21D;69555;53.014;8.886;2023-08-21T05:25:43;29.89;44.67
34145;HTU21D;69555;53.014;8.886;2023-08-21T05:28:09;30.12;43.71
34145;HTU21D;69555;53.014;8.886;2023-08-21T05:30:35;30.85;41.80
34145;HTU21D;69555;53.014;8.886;2023-08-21T05:33:01;30.41;43.25
34145;HTU21D;69555;53.014;8.886;2023-08-21T05:35:27;31.35;41.04
34145;HTU21D;69555;53.014;8.886;2023-08-21T05:37:52;31.12;41.41
34145;HTU21D;69555;53.014;8.886;2023-08-21T05:40:17;31.23;41.10
34145;HTU21D;69555;53.014;8.886;2023-08-21T05:42:43;31.43;40.77
34145;HTU21D;69555;53.014;8.886;2023-08-21T05:45:08;32.14;39.42
34145;HTU21D;69555;53.014;8.886;2023-08-21T05:47:34;32.89;37.99
34145;HTU21D;69555;53.014;8.886;2023-08-21T05:49:59;33.83;36.25
34145;HTU21D;69555;53.014;8.886;2023-08-21T05:52:24;35.13;33.86
34145;HTU21D;69555;53.014;8.886;2023-08-21T05:54:50;34.18;35.53
34145;HTU21D;69555;53.014;8.886;2023-08-21T05:57:15;34.51;34.87
34145;HTU21D;69555;53.014;8.886;2023-08-21T05:59:47;34.52;34.60
34145;HTU21D;69555;53.014;8.886;2023-08-21T06:02:14;34.12;35.92
34145;HTU21D;69555;53.014;8.886;2023-08-21T06:04:41;34.95;34.76
34145;HTU21D;69555;53.014;8.886;2023-08-21T06:07:08;35.23;33.97
34145;HTU21D;69555;53.014;8.886;2023-08-21T06:09:35;36.67;31.58
34145;HTU21D;69555;53.014;8.886;2023-08-21T06:12:03;38.21;29.16
34145;HTU21D;69555;53.014;8.886;2023-08-21T06:14:29;38.02;29.26
34145;HTU21D;69555;53.014;8.886;2023-08-21T06:16:57;35.81;33.24
34145;HTU21D;69555;53.014;8.886;2023-08-21T06:19:23;37.07;31.54
34145;HTU21D;69555;53.014;8.886;2023-08-21T06:21:50;36.71;32.09
34145;HTU21D;69555;53.014;8.886;2023-08-21T06:24:17;37.94;30.13
34145;HTU21D;69555;53.014;8.886;2023-08-21T06:26:42;38.39;29.43
34145;HTU21D;69555;53.014;8.886;2023-08-21T06:29:07;38.37;29.16
34145;HTU21D;69555;53.014;8.886;2023-08-21T06:31:33;37.52;30.45
34145;HTU21D;69555;53.014;8.886;2023-08-21T06:33:58;36.14;33.03
34145;HTU21D;69555;53.014;8.886;2023-08-21T06:36:24;37.65;30.80
34145;HTU21D;69555;53.014;8.886;2023-08-21T06:38:49;38.71;28.97
34145;HTU21D;69555;53.014;8.886;2023-08-21T06:41:15;39.88;27.34
34145;HTU21D;69555;53.014;8.886;2023-08-21T06:43:40;38.69;29.16
34145;HTU21D;69555;53.014;8.886;2023-08-21T06:46:07;39.61;27.92
34145;HTU21D;69555;53.014;8.886;2023-08-21T06:48:32;41.58;24.56
34145;HTU21D;69555;53.014;8.886;2023-08-21T06:50:57;39.04;28.08
34145;HTU21D;69555;53.014;8.886;2023-08-21T06:53:23;41.16;25.01
34145;HTU21D;69555;53.014;8.886;2023-08-21T06:55:48;40.77;25.21
34145;HTU21D;69555;53.014;8.886;2023-08-21T06:58:13;42.18;23.86
34145;HTU21D;69555;53.014;8.886;2023-08-21T07:00:39;42.53;23.08
34145;HTU21D;69555;53.014;8.886;2023-08-21T07:03:05;42.63;23.45
34145;HTU21D;69555;53.014;8.886;2023-08-21T07:05:34;43.72;21.84
34145;HTU21D;69555;53.014;8.886;2023-08-21T07:08:02;44.28;20.71
34145;HTU21D;69555;53.014;8.886;2023-08-21T07:10:29;40.10;26.84
34145;HTU21D;69555;53.014;8.886;2023-08-21T07:12:57;41.95;23.95
34145;HTU21D;69555;53.014;8.886;2023-08-21T07:15:24;42.19;23.21
34145;HTU21D;69555;53.014;8.886;2023-08-21T07:17:49;42.98;21.91
34145;HTU21D;69555;53.014;8.886;2023-08-21T07:20:15;40.40;25.91
34145;HTU21D;69555;53.014;8.886;2023-08-21T07:22:41;42.53;22.59
34145;HTU21D;69555;53.014;8.886;2023-08-21T07:25:07;43.12;22.25
34145;HTU21D;69555;53.014;8.886;2023-08-21T07:27:33;43.98;20.57
34145;HTU21D;69555;53.014;8.886;2023-08-21T07:30:00;44.10;20.39
34145;HTU21D;69555;53.014;8.886;2023-08-21T07:32:26;44.46;19.81
34145;HTU21D;69555;53.014;8.886;2023-08-21T07:34:53;45.61;18.62
34145;HTU21D;69555;53.014;8.886;2023-08-21T07:37:21;44.55;20.09
34145;HTU21D;69555;53.014;8.886;2023-08-21T07:39:47;44.82;20.34
34145;HTU21D;69555;53.014;8.886;2023-08-21T07:42:14;44.29;19.79
34145;HTU21D;69555;53.014;8.886;2023-08-21T07:44:41;43.84;20.48
34145;HTU21D;69555;53.014;8.886;2023-08-21T07:47:07;43.07;21.75
34145;HTU21D;69555;53.014;8.886;2023-08-21T07:49:34;40.61;25.67
34145;HTU21D;69555;53.014;8.886;2023-08-21T07:52:02;39.76;27.07
34145;HTU21D;69555;53.014;8.886;2023-08-21T07:54:29;34.99;34.07
34145;HTU21D;69555;53.014;8.886;2023-08-21T07:56:56;32.40;40.62
34145;HTU21D;69555;53.014;8.886;2023-08-21T07:59:22;30.77;43.41
34145;HTU21D;69555;53.014;8.886;2023-08-21T08:01:48;29.96;46.25
34145;HTU21D;69555;53.014;8.886;2023-08-21T08:04:16;28.87;48.84
34145;HTU21D;69555;53.014;8.886;2023-08-21T08:06:43;29.23;47.70
34145;HTU21D;69555;53.014;8.886;2023-08-21T08:09:09;28.90;49.44
34145;HTU21D;69555;53.014;8.886;2023-08-21T08:11:36;28.15;53.47
34145;HTU21D;69555;53.014;8.886;2023-08-21T08:14:03;28.71;51.99
34145;HTU21D;69555;53.014;8.886;2023-08-21T08:16:30;27.17;55.08
34145;HTU21D;69555;53.014;8.886;2023-08-21T08:18:56;28.04;53.77
34145;HTU21D;69555;53.014;8.886;2023-08-21T08:21:24;30.79;45.16
34145;HTU21D;69555;53.014;8.886;2023-08-21T08:23:52;30.35;46.45
34145;HTU21D;69555;53.014;8.886;2023-08-21T08:26:17;30.52;46.72
34145;HTU21D;69555;53.014;8.886;2023-08-21T08:28:44;33.62;39.12
34145;HTU21D;69555;53.014;8.886;2023-08-21T08:31:17;30.11;45.38
34145;HTU21D;69555;53.014;8.886;2023-08-21T08:33:45;32.22;41.74
34145;HTU21D;69555;53.014;8.886;2023-08-21T08:36:11;33.26;39.88
34145;HTU21D;69555;53.014;8.886;2023-08-21T08:38:37;33.79;38.24
34145;HTU21D;69555;53.014;8.886;2023-08-21T08:41:09;32.35;41.04
34145;HTU21D;69555;53.014;8.886;2023-08-21T08:43:39;32.53;41.42
34145;HTU21D;69555;53.014;8.886;2023-08-21T08:46:06;32.49;42.48
34145;HTU21D;69555;53.014;8.886;2023-08-21T08:48:35;31.43;42.10
34145;HTU21D;69555;53.014;8.886;2023-08-21T08:51:01;31.14;43.74
34145;HTU21D;69555;53.014;8.886;2023-08-21T08:53:29;32.31;41.41
34145;HTU21D;69555;53.014;8.886;2023-08-21T08:55:55;30.67;42.93
34145;HTU21D;69555;53.014;8.886;2023-08-21T08:58:20;28.40;49.77
34145;HTU21D;69555;53.014;8.886;2023-08-21T09:00:45;28.40;49.98
34145;HTU21D;69555;53.014;8.886;2023-08-21T09:03:11;30.11;42.84
34145;HTU21D;69555;53.014;8.886;2023-08-21T09:05:39;29.58;45.51
34145;HTU21D;69555;53.014;8.886;2023-08-21T09:10:34;28.85;47.36
34145;HTU21D;69555;53.014;8.886;2023-08-21T09:13:01;27.57;49.23
34145;HTU21D;69555;53.014;8.886;2023-08-21T09:15:29;27.79;50.61
34145;HTU21D;69555;53.014;8.886;2023-08-21T09:17:55;28.26;47.32
34145;HTU21D;69555;53.014;8.886;2023-08-21T09:20:21;27.59;48.74
34145;HTU21D;69555;53.014;8.886;2023-08-21T09:22:55;27.31;51.23
34145;HTU21D;69555;53.014;8.886;2023-08-21T09:25:23;27.51;50.28
34145;HTU21D;69555;53.014;8.886;2023-08-21T09:27:51;27.54;49.39
34145;HTU21D;69555;53.014;8.886;2023-08-21T09:30:17;27.24;50.25
34145;HTU21D;69555;53.014;8.886;2023-08-21T09:32:56;28.27;48.15
34145;HTU21D;69555;53.014;8.886;2023-08-21T09:35:23;28.52;47.05
34145;HTU21D;69555;53.014;8.886;2023-08-21T09:37:49;27.80;47.44
34145;HTU21D;69555;53.014;8.886;2023-08-21T09:40:18;27.08;47.38
34145;HTU21D;69555;53.014;8.886;2023-08-21T09:42:43;27.42;46.73
34145;HTU21D;69555;53.014;8.886;2023-08-21T09:45:09;28.23;47.95
34145;HTU21D;69555;53.014;8.886;2023-08-21T09:47:35;27.85;45.66
34145;HTU21D;69555;53.014;8.886;2023-08-21T09:50:02;28.38;44.80
34145;HTU21D;69555;53.014;8.886;2023-08-21T09:52:28;27.72;44.33
34145;HTU21D;69555;53.014;8.886;2023-08-21T09:54:53;27.93;45.59
34145;HTU21D;69555;53.014;8.886;2023-08-21T09:57:22;27.89;45.03
34145;HTU21D;69555;53.014;8.886;2023-08-21T09:59:51;27.95;43.35
34145;HTU21D;69555;53.014;8.886;2023-08-21T10:02:17;27.82;47.47
34145;HTU21D;69555;53.014;8.886;2023-08-21T10:04:45;28.14;44.18
34145;HTU21D;69555;53.014;8.886;2023-08-21T10:07:11;27.94;42.62
34145;HTU21D;69555;53.014;8.886;2023-08-21T10:09:40;27.89;45.16
34145;HTU21D;69555;53.014;8.886;2023-08-21T10:12:09;27.95;46.73
34145;HTU21D;69555;53.014;8.886;2023-08-21T10:14:35;28.12;45.46
34145;HTU21D;69555;53.014;8.886;2023-08-21T10:17:01;28.06;44.83
34145;HTU21D;69555;53.014;8.886;2023-08-21T10:19:31;28.53;46.55
34145;HTU21D;69555;53.014;8.886;2023-08-21T10:21:57;28.79;39.83
34145;HTU21D;69555;53.014;8.886;2023-08-21T10:24:28;28.65;42.66
34145;HTU21D;69555;53.014;8.886;2023-08-21T10:26:58;28.64;41.62
34145;HTU21D;69555;53.014;8.886;2023-08-21T10:29:25;29.03;41.75
34145;HTU21D;69555;53.014;8.886;2023-08-21T10:32:01;28.47;42.77
34145;HTU21D;69555;53.014;8.886;2023-08-21T10:34:30;28.42;43.80
34145;HTU21D;69555;53.014;8.886;2023-08-21T10:37:10;29.31;42.35
34145;HTU21D;69555;53.014;8.886;2023-08-21T10:39:37;29.27;40.38
34145;HTU21D;69555;53.014;8.886;2023-08-21T10:42:11;28.59;41.29
34145;HTU21D;69555;53.014;8.886;2023-08-21T10:47:21;28.20;44.06
34145;HTU21D;69555;53.014;8.886;2023-08-21T10:49:49;28.24;40.93
34145;HTU21D;69555;53.014;8.886;2023-08-21T10:52:20;27.56;43.60
34145;HTU21D;69555;53.014;8.886;2023-08-21T10:54:49;28.18;39.30
34145;HTU21D;69555;53.014;8.886;2023-08-21T10:57:15;28.30;43.70
34145;HTU21D;69555;53.014;8.886;2023-08-21T11:02:15;28.28;44.00
34145;HTU21D;69555;53.014;8.886;2023-08-21T11:04:40;27.91;43.84
34145;HTU21D;69555;53.014;8.886;2023-08-21T11:07:07;27.36;43.84
34145;HTU21D;69555;53.014;8.886;2023-08-21T11:09:35;27.97;43.63
34145;HTU21D;69555;53.014;8.886;2023-08-21T11:12:08;28.13;43.57
34145;HTU21D;69555;53.014;8.886;2023-08-21T11:14:34;28.14;41.69
34145;HTU21D;69555;53.014;8.886;2023-08-21T11:17:00;28.29;43.37
34145;HTU21D;69555;53.014;8.886;2023-08-21T11:19:26;28.74;44.45
34145;HTU21D;69555;53.014;8.886;2023-08-21T11:21:51;28.86;42.10
34145;HTU21D;69555;53.014;8.886;2023-08-21T11:24:17;28.69;41.25
34145;HTU21D;69555;53.014;8.886;2023-08-21T11:26:42;28.50;42.75
34145;HTU21D;69555;53.014;8.886;2023-08-21T11:29:08;28.49;40.86
34145;HTU21D;69555;53.014;8.886;2023-08-21T11:31:33;28.90;44.74
34145;HTU21D;69555;53.014;8.886;2023-08-21T11:33:59;28.26;41.04
34145;HTU21D;69555;53.014;8.886;2023-08-21T11:36:24;27.80;42.37
34145;HTU21D;69555;53.014;8.886;2023-08-21T11:38:59;28.35;41.89
34145;HTU21D;69555;53.014;8.886;2023-08-21T11:41:25;27.93;44.57
34145;HTU21D;69555;53.014;8.886;2023-08-21T11:43:50;27.76;43.19
34145;HTU21D;69555;53.014;8.886;2023-08-21T11:46:18;28.38;48.31
34145;HTU21D;69555;53.014;8.886;2023-08-21T11:48:44;28.28;45.45
34145;HTU21D;69555;53.014;8.886;2023-08-21T11:51:13;27.89;42.48
34145;HTU21D;69555;53.014;8.886;2023-08-21T11:53:40;27.95;41.91
34145;HTU21D;69555;53.014;8.886;2023-08-21T11:56:14;28.28;46.37
34145;HTU21D;69555;53.014;8.886;2023-08-21T11:58:40;28.55;39.50
34145;HTU21D;69555;53.014;8.886;2023-08-21T12:01:06;28.21;41.01
34145;HTU21D;69555;53.014;8.886;2023-08-21T12:03:36;28.12;44.77
34145;HTU21D;69555;53.014;8.886;2023-08-21T12:06:10;28.20;45.15
34145;HTU21D;69555;53.014;8.886;2023-08-21T12:08:36;27.47;43.83
34145;HTU21D;69555;53.014;8.886;2023-08-21T12:11:02;27.47;43.51
34145;HTU21D;69555;53.014;8.886;2023-08-21T12:13:28;27.34;45.64
34145;HTU21D;69555;53.014;8.886;2023-08-21T12:15:53;27.39;45.06
34145;HTU21D;69555;53.014;8.886;2023-08-21T12:18:19;27.88;46.60
34145;HTU21D;69555;53.014;8.886;2023-08-21T12:20:44;27.99;41.78
34145;HTU21D;69555;53.014;8.886;2023-08-21T12:23:10;27.76;41.81
34145;HTU21D;69555;53.014;8.886;2023-08-21T12:25:35;27.99;42.97
34145;HTU21D;69555;53.014;8.886;2023-08-21T12:28:00;27.78;42.36
34145;HTU21D;69555;53.014;8.886;2023-08-21T12:30:26;27.57;42.38
34145;HTU21D;69555;53.014;8.886;2023-08-21T12:32:51;28.28;44.33
34145;HTU21D;69555;53.014;8.886;2023-08-21T12:35:16;27.66;41.04
34145;HTU21D;69555;53.014;8.886;2023-08-21T12:37:42;28.05;41.36
34145;HTU21D;69555;53.014;8.886;2023-08-21T12:40:08;28.15;43.02
34145;HTU21D;69555;53.014;8.886;2023-08-21T12:42:34;27.87;41.01
34145;HTU21D;69555;53.014;8.886;2023-08-21T12:44:59;28.20;39.57
34145;HTU21D;69555;53.014;8.886;2023-08-21T12:47:24;27.90;42.71
34145;HTU21D;69555;53.014;8.886;2023-08-21T12:49:50;28.29;40.52
34145;HTU21D;69555;53.014;8.886;2023-08-21T12:52:15;28.33;39.43
34145;HTU21D;69555;53.014;8.886;2023-08-21T12:54:40;28.11;39.79
34145;HTU21D;69555;53.014;8.886;2023-08-21T12:57:06;28.41;42.35
34145;HTU21D;69555;53.014;8.886;2023-08-21T12:59:32;28.50;40.93
34145;HTU21D;69555;53.014;8.886;2023-08-21T13:01:59;28.41;41.39
34145;HTU21D;69555;53.014;8.886;2023-08-21T13:04:25;27.81;42.72
34145;HTU21D;69555;53.014;8.886;2023-08-21T13:06:51;27.90;40.99
34145;HTU21D;69555;53.014;8.886;2023-08-21T13:09:16;27.76;40.81
34145;HTU21D;69555;53.014;8.886;2023-08-21T13:11:42;27.80;40.71
34145;HTU21D;69555;53.014;8.886;2023-08-21T13:14:07;28.03;39.75
34145;HTU21D;69555;53.014;8.886;2023-08-21T13:16:32;27.83;43.13
34145;HTU21D;69555;53.014;8.886;2023-08-21T13:18:58;28.10;37.79
34145;HTU21D;69555;53.014;8.886;2023-08-21T13:21:23;27.82;34.37
34145;HTU21D;69555;53.014;8.886;2023-08-21T13:23:48;28.38;36.85
34145;HTU21D;69555;53.014;8.886;2023-08-21T13:26:14;27.97;40.65
34145;HTU21D;69555;53.014;8.886;2023-08-21T13:28:40;28.28;38.19
34145;HTU21D;69555;53.014;8.886;2023-08-21T13:31:05;28.47;33.25
34145;HTU21D;69555;53.014;8.886;2023-08-21T13:33:32;28.33;37.21
34145;HTU21D;69555;53.014;8.886;2023-08-21T13:35:58;28.32;37.54
34145;HTU21D;69555;53.014;8.886;2023-08-21T13:38:23;28.48;39.91
34145;HTU21D;69555;53.014;8.886;2023-08-21T13:40:49;28.67;38.30
34145;HTU21D;69555;53.014;8.886;2023-08-21T13:43:14;29.06;38.91
34145;HTU21D;69555;53.014;8.886;2023-08-21T13:45:39;28.93;34.15
34145;HTU21D;69555;53.014;8.886;2023-08-21T13:48:05;29.07;40.36
34145;HTU21D;69555;53.014;8.886;2023-08-21T13:50:31;28.72;40.81
34145;HTU21D;69555;53.014;8.886;2023-08-21T13:52:56;28.58;38.59
34145;HTU21D;69555;53.014;8.886;2023-08-21T13:55:22;28.08;40.90
34145;HTU21D;69555;53.014;8.886;2023-08-21T13:57:48;28.45;36.83
34145;HTU21D;69555;53.014;8.886;2023-08-21T14:00:13;28.15;40.24
34145;HTU21D;69555;53.014;8.886;2023-08-21T14:02:40;28.59;39.80
34145;HTU21D;69555;53.014;8.886;2023-08-21T14:05:07;28.88;36.92
34145;HTU21D;69555;53.014;8.886;2023-08-21T14:07:33;27.72;42.77
34145;HTU21D;69555;53.014;8.886;2023-08-21T14:09:59;27.86;44.44
34145;HTU21D;69555;53.014;8.886;2023-08-21T14:12:24;27.97;46.38
34145;HTU21D;69555;53.014;8.886;2023-08-21T14:14:50;28.01;45.36
34145;HTU21D;69555;53.014;8.886;2023-08-21T14:17:16;28.15;44.43
34145;HTU21D;69555;53.014;8.886;2023-08-21T14:19:41;28.13;44.74
34145;HTU21D;69555;53.014;8.886;2023-08-21T14:22:07;28.16;43.03
34145;HTU21D;69555;53.014;8.886;2023-08-21T14:24:32;27.88;44.22
34145;HTU21D;69555;53.014;8.886;2023-08-21T14:26:58;28.38;43.45
34145;HTU21D;69555;53.014;8.886;2023-08-21T14:29:23;27.68;42.85
34145;HTU21D;69555;53.014;8.886;2023-08-21T14:31:48;27.60;42.23
34145;HTU21D;69555;53.014;8.886;2023-08-21T14:34:14;27.28;42.32
34145;HTU21D;69555;53.014;8.886;2023-08-21T14:36:41;27.22;42.71
34145;HTU21D;69555;53.014;8.886;2023-08-21T14:39:07;27.29;41.97
34145;HTU21D;69555;53.014;8.886;2023-08-21T14:41:32;27.36;44.00
34145;HTU21D;69555;53.014;8.886;2023-08-21T14:43:58;27.46;41.33
34145;HTU21D;69555;53.014;8.886;2023-08-21T14:46:23;27.57;45.34
34145;HTU21D;69555;53.014;8.886;2023-08-21T14:48:49;27.15;43.61
34145;HTU21D;69555;53.014;8.886;2023-08-21T14:51:14;27.16;43.50
34145;HTU21D;69555;53.014;8.886;2023-08-21T14:53:39;26.82;45.23
34145;HTU21D;69555;53.014;8.886;2023-08-21T14:56:05;26.77;46.74
34145;HTU21D;69555;53.014;8.886;2023-08-21T14:58:30;27.10;43.13
34145;HTU21D;69555;53.014;8.886;2023-08-21T15:00:55;26.82;40.81
34145;HTU21D;69555;53.014;8.886;2023-08-21T15:03:21;26.95;41.24
34145;HTU21D;69555;53.014;8.886;2023-08-21T15:05:47;27.15;40.74
34145;HTU21D;69555;53.014;8.886;2023-08-21T15:08:13;27.04;44.02
34145;HTU21D;69555;53.014;8.886;2023-08-21T15:10:38;27.56;43.28
34145;HTU21D;69555;53.014;8.886;2023-08-21T15:13:04;27.41;43.51
34145;HTU21D;69555;53.014;8.886;2023-08-21T15:15:29;27.59;39.89
34145;HTU21D;69555;53.014;8.886;2023-08-21T15:17:55;27.59;43.44